Time;durP1;ratioP1;P1;durP2;ratioP2;P2;SDS_P1;SDS_P2;PMS_P1;PMS_P2;Temp;Humidity;BMP_temperature;BMP_pressure;BME280_temperature;BME280_humidity;BME280_pressure;Samples;Min_cycle;Max_cycle;Signal;HPM_P1;HPM_P2
2022/06/24 00:01:23;;;;;;;6.15;2.10;;;20.70;99.00;;;;;;4927242;29;20052;-75
2022/06/24 00:03:49;;;;;;;3.10;1.70;;;20.60;98.80;;;;;;4928136;29;20433;-74
2022/06/24 00:06:16;;;;;;;4.72;2.00;;;20.60;99.00;;;;;;4928292;29;20134;-73
2022/06/24 00:08:49;;;;;;;3.70;2.22;;;20.60;99.50;;;;;;4927529;29;20048;-74
2022/06/24 00:11:15;;;;;;;4.55;1.90;;;20.50;99.90;;;;;;4911140;29;20485;-74
2022/06/24 00:13:41;;;;;;;4.45;2.00;;;20.50;99.90;;;;;;4942132;28;20119;-74
2022/06/24 00:16:07;;;;;;;4.97;2.10;;;20.50;99.90;;;;;;4942584;28;20508;-74
2022/06/24 00:18:33;;;;;;;5.72;1.92;;;20.40;99.90;;;;;;4941717;29;20920;-74
2022/06/24 00:20:58;;;;;;;4.60;2.17;;;20.30;99.90;;;;;;4910719;29;20047;-74
2022/06/24 00:23:24;;;;;;;7.45;2.45;;;20.20;99.90;;;;;;4941713;28;20067;-74
2022/06/24 00:25:50;;;;;;;5.88;2.10;;;20.10;99.90;;;;;;4927137;29;20246;-74
2022/06/24 00:28:23;;;;;;;5.78;2.13;;;20.10;99.90;;;;;;4930334;28;20179;-74
2022/06/24 00:30:52;;;;;;;6.63;2.15;;;20.00;99.90;;;;;;4947015;29;20048;-74
2022/06/24 00:33:19;;;;;;;4.95;1.90;;;19.90;99.90;;;;;;4930872;29;20531;-74
2022/06/24 00:35:47;;;;;;;4.10;2.10;;;19.70;99.90;;;;;;4930212;29;20122;-74
2022/06/24 00:38:26;;;;;;;7.25;2.60;;;19.60;99.90;;;;;;4930630;29;20126;-74
2022/06/24 00:41:04;;;;;;;5.75;1.88;;;19.50;99.90;;;;;;4931804;29;20174;-74
2022/06/24 00:43:32;;;;;;;3.97;2.25;;;19.40;99.90;;;;;;4944778;28;20681;-74
2022/06/24 00:46:13;;;;;;;6.75;2.40;;;19.40;99.90;;;;;;4923778;29;20476;-74
2022/06/24 00:48:41;;;;;;;;;;;19.30;99.90;;;;;;4928327;29;20473;-74
2022/06/24 00:51:07;;;;;;;6.03;2.17;;;19.30;99.90;;;;;;4906722;29;19930;-74
2022/06/24 00:53:51;;;;;;;11.02;2.60;;;19.20;99.90;;;;;;4944597;28;20074;-73
2022/06/24 00:56:19;;;;;;;4.60;2.00;;;19.20;99.90;;;;;;4931812;29;20052;-74
2022/06/24 00:58:55;;;;;;;6.70;2.60;;;19.20;99.90;;;;;;4929295;28;20047;-74
2022/06/24 01:01:28;;;;;;;4.40;2.20;;;19.20;99.90;;;;;;4926388;29;20050;-74
2022/06/24 01:03:55;;;;;;;4.35;1.85;;;19.20;99.90;;;;;;4945395;28;20233;-72
2022/06/24 01:06:21;;;;;;;6.32;3.00;;;19.10;99.90;;;;;;4945696;28;20047;-74
2022/06/24 01:08:47;;;;;;;3.97;2.20;;;19.20;99.90;;;;;;4932184;29;20689;-73
2022/06/24 01:11:12;;;;;;;6.32;2.28;;;19.10;99.90;;;;;;4911054;29;20090;-74
2022/06/24 01:13:38;;;;;;;5.68;2.63;;;19.10;99.90;;;;;;4946697;28;20043;-75
2022/06/24 01:16:04;;;;;;;5.75;2.47;;;19.10;99.90;;;;;;4915720;29;20230;-74
2022/06/24 01:18:30;;;;;;;5.68;2.65;;;19.10;99.90;;;;;;4946573;29;20039;-74
2022/06/24 01:20:55;;;;;;;7.35;2.65;;;19.10;99.90;;;;;;4942959;28;20121;-74
2022/06/24 01:23:25;;;;;;;5.60;2.30;;;19.10;99.90;;;;;;4931260;29;20058;-74
2022/06/24 01:25:52;;;;;;;4.32;2.38;;;19.10;99.90;;;;;;4938785;29;20043;-74
2022/06/24 01:28:17;;;;;;;5.40;2.42;;;19.10;99.90;;;;;;4946355;28;20115;-75
2022/06/24 01:30:43;;;;;;;4.63;2.33;;;19.00;99.90;;;;;;4928476;29;20055;-75
2022/06/24 01:33:09;;;;;;;5.03;2.42;;;19.00;99.90;;;;;;4934244;29;20150;-75
2022/06/24 01:35:34;;;;;;;5.97;2.50;;;19.00;99.90;;;;;;4945947;28;20055;-74
2022/06/24 01:38:00;;;;;;;7.82;2.47;;;18.90;99.90;;;;;;4930459;29;20071;-74
2022/06/24 01:40:26;;;;;;;5.03;2.40;;;18.90;99.90;;;;;;4927323;29;20047;-74
2022/06/24 01:42:51;;;;;;;6.65;2.30;;;18.90;99.90;;;;;;4939011;28;20622;-73
2022/06/24 01:45:17;;;;;;;7.25;2.63;;;18.90;99.90;;;;;;4943175;29;20047;-74
2022/06/24 01:47:43;;;;;;;4.50;2.15;;;18.90;99.90;;;;;;4926159;29;20531;-74
2022/06/24 01:50:09;;;;;;;6.75;2.40;;;18.90;99.90;;;;;;4937759;28;20040;-74
2022/06/24 01:52:34;;;;;;;4.93;2.88;;;18.80;99.90;;;;;;4942322;29;20047;-74
2022/06/24 01:55:00;;;;;;;5.50;2.45;;;18.80;99.90;;;;;;4942357;28;20046;-73
2022/06/24 01:57:26;;;;;;;5.18;2.20;;;18.80;99.90;;;;;;4911586;29;20044;-74
2022/06/24 01:59:52;;;;;;;7.32;2.38;;;18.70;99.90;;;;;;4940296;28;20047;-74
2022/06/24 02:02:18;;;;;;;4.75;2.30;;;18.60;99.90;;;;;;4921608;29;20054;-74
2022/06/24 02:04:47;;;;;;;8.63;2.50;;;18.60;99.90;;;;;;4941986;28;20039;-74
2022/06/24 02:07:13;;;;;;;7.50;2.50;;;18.60;99.90;;;;;;4938848;29;20036;-74
2022/06/24 02:13:26;;;;;;;6.90;2.50;;;18.60;99.90;;;;;;4928557;28;20045;-74
2022/06/24 02:15:08;;;;;;;7.38;2.60;;;18.50;99.90;;;;;;4941472;29;20043;-74
2022/06/24 02:17:34;;;;;;;5.32;2.38;;;18.40;99.90;;;;;;4927601;29;20044;-74
2022/06/24 02:20:00;;;;;;;6.97;2.78;;;18.40;99.90;;;;;;4922955;29;20653;-74
2022/06/24 02:22:26;;;;;;;7.75;2.60;;;18.40;99.90;;;;;;4925903;29;20145;-74
2022/06/24 02:24:52;;;;;;;6.88;2.80;;;18.40;99.90;;;;;;4938453;29;20552;-74
2022/06/24 02:27:17;;;;;;;6.70;2.40;;;18.30;99.90;;;;;;4925494;29;20051;-74
2022/06/24 02:29:43;;;;;;;7.00;2.90;;;18.30;99.90;;;;;;4940085;28;20517;-74
2022/06/24 02:32:09;;;;;;;5.82;2.75;;;18.30;99.90;;;;;;4922021;29;20524;-74
2022/06/24 02:34:34;;;;;;;8.98;2.92;;;18.30;99.90;;;;;;4941121;29;20409;-74
2022/06/24 02:37:00;;;;;;;9.98;2.90;;;18.30;99.90;;;;;;4923759;29;20096;-73
2022/06/24 02:39:26;;;;;;;7.07;2.70;;;18.30;99.90;;;;;;4940143;28;20138;-74
2022/06/24 02:41:51;;;;;;;5.35;2.70;;;18.40;99.90;;;;;;4926002;29;20505;-74
2022/06/24 02:44:17;;;;;;;7.93;2.80;;;18.40;99.90;;;;;;4925086;29;20078;-74
2022/06/24 02:46:43;;;;;;;8.88;3.00;;;18.50;99.90;;;;;;4940531;29;20051;-74
2022/06/24 02:49:08;;;;;;;6.13;2.95;;;18.60;99.90;;;;;;4936542;28;20079;-74
2022/06/24 02:51:34;;;;;;;7.68;2.95;;;18.60;99.90;;;;;;4941120;28;20035;-73
2022/06/24 02:54:00;;;;;;;6.40;2.55;;;18.70;99.90;;;;;;4940075;29;20062;-74
2022/06/24 02:56:25;;;;;;;8.00;2.80;;;18.70;99.90;;;;;;4944725;28;20607;-74
2022/06/24 02:58:51;;;;;;;7.20;2.63;;;18.80;99.90;;;;;;4946011;28;20047;-74
2022/06/24 03:01:17;;;;;;;7.95;2.85;;;18.70;99.90;;;;;;4924368;29;20147;-73
2022/06/24 03:03:42;;;;;;;4.75;2.33;;;18.70;99.90;;;;;;4923185;29;20049;-74
2022/06/24 03:06:08;;;;;;;8.50;2.78;;;18.70;99.90;;;;;;4940173;29;20061;-74
2022/06/24 03:08:34;;;;;;;5.72;2.63;;;18.70;99.90;;;;;;4906187;29;20101;-74
2022/06/24 03:11:00;;;;;;;9.25;2.72;;;18.70;99.90;;;;;;4941268;28;20496;-74
2022/06/24 03:13:28;;;;;;;8.52;3.03;;;18.70;99.90;;;;;;4942173;28;20335;-74
2022/06/24 03:15:53;;;;;;;7.22;2.60;;;18.80;99.90;;;;;;4943573;29;20094;-74
2022/06/24 03:18:20;;;;;;;8.68;2.80;;;18.70;99.90;;;;;;4923266;28;20047;-74
2022/06/24 03:20:46;;;;;;;6.10;2.78;;;18.70;99.90;;;;;;4924388;29;20050;-74
2022/06/24 03:23:13;;;;;;;5.90;2.60;;;18.60;99.90;;;;;;4939084;28;20055;-74
2022/06/24 03:25:39;;;;;;;6.22;2.33;;;18.70;99.90;;;;;;4931772;29;20034;-75
2022/06/24 03:28:05;;;;;;;4.82;2.10;;;18.70;99.90;;;;;;4951134;28;20047;-74
2022/06/24 03:30:32;;;;;;;7.60;2.78;;;18.70;99.90;;;;;;4968285;28;20133;-75
2022/06/24 03:32:58;;;;;;;6.35;2.63;;;18.70;99.90;;;;;;4931427;29;20062;-74
2022/06/24 03:35:24;;;;;;;6.45;2.63;;;18.70;99.90;;;;;;4940591;29;20035;-74
2022/06/24 03:37:50;;;;;;;6.20;2.60;;;18.80;99.90;;;;;;4943017;28;20074;-74
2022/06/24 03:40:15;;;;;;;7.15;2.65;;;18.80;99.90;;;;;;4920732;29;20079;-74
2022/06/24 03:42:41;;;;;;;4.88;2.70;;;18.80;99.90;;;;;;4950903;29;20034;-74
2022/06/24 03:45:07;;;;;;;6.20;3.22;;;18.80;99.90;;;;;;4955006;28;20043;-74
2022/06/24 03:47:33;;;;;;;5.55;2.65;;;18.90;99.90;;;;;;4956964;28;20098;-74
2022/06/24 03:50:00;;;;;;;5.53;2.65;;;18.90;99.90;;;;;;4941113;29;20132;-74
2022/06/24 03:52:25;;;;;;;7.38;3.20;;;19.00;99.90;;;;;;4939598;29;20405;-73
2022/06/24 03:54:51;;;;;;;4.50;2.63;;;19.00;99.90;;;;;;4939424;28;20055;-73
2022/06/24 03:57:17;;;;;;;7.97;2.40;;;19.00;99.90;;;;;;4921966;29;20062;-73
2022/06/24 03:59:43;;;;;;;7.03;3.05;;;19.10;99.90;;;;;;4940845;28;20476;-73
2022/06/24 04:02:08;;;;;;;5.70;2.85;;;19.10;99.90;;;;;;4923024;29;20054;-73
2022/06/24 04:04:34;;;;;;;6.32;3.17;;;19.20;99.90;;;;;;4924825;29;20595;-74
2022/06/24 04:07:00;;;;;;;8.20;2.90;;;19.20;99.90;;;;;;4905093;29;20521;-74
2022/06/24 04:09:25;;;;;;;6.47;2.72;;;19.20;99.90;;;;;;4928157;29;20052;-74
2022/06/24 04:11:51;;;;;;;7.18;2.83;;;19.20;99.90;;;;;;4939389;29;20533;-73
2022/06/24 04:15:13;;;;;;;6.68;2.90;;;19.30;99.90;;;;;;4921710;29;20043;-73
2022/06/24 04:17:03;;;;;;;10.48;3.22;;;19.40;99.90;;;;;;4940543;29;20047;-73
2022/06/24 04:19:29;;;;;;;5.20;2.75;;;19.50;99.90;;;;;;4914528;29;20064;-73
2022/06/24 04:21:55;;;;;;;5.90;2.85;;;19.50;99.90;;;;;;4940721;28;20046;-74
2022/06/24 04:24:22;;;;;;;11.18;3.53;;;19.60;99.90;;;;;;4927069;29;20047;-73
2022/06/24 04:26:48;;;;;;;6.75;2.97;;;19.60;99.90;;;;;;4946252;28;20058;-74
2022/06/24 04:29:13;;;;;;;7.30;2.70;;;19.70;99.90;;;;;;4944752;28;20425;-74
2022/06/24 04:31:39;;;;;;;8.90;2.65;;;19.70;99.90;;;;;;4924933;29;20082;-73
2022/06/24 04:34:05;;;;;;;6.35;2.88;;;19.80;99.90;;;;;;4924743;29;20052;-74
2022/06/24 04:36:30;;;;;;;6.82;2.78;;;20.20;99.90;;;;;;4919767;29;20124;-74
2022/06/24 04:38:56;;;;;;;5.75;2.83;;;21.00;99.90;;;;;;4927010;29;20044;-73
2022/06/24 04:41:22;;;;;;;6.00;2.70;;;21.70;99.90;;;;;;4945445;29;20051;-74
2022/06/24 04:43:47;;;;;;;6.28;2.40;;;22.40;99.90;;;;;;4922298;29;20086;-74
2022/06/24 04:46:16;;;;;;;5.65;2.60;;;23.00;99.90;;;;;;4942606;29;20040;-74
2022/06/24 04:48:42;;;;;;;5.03;2.67;;;23.40;99.90;;;;;;4940406;28;20090;-74
2022/06/24 04:51:11;;;;;;;6.18;2.70;;;23.40;99.90;;;;;;4918625;29;20557;-74
2022/06/24 04:53:37;;;;;;;8.75;2.97;;;23.00;99.90;;;;;;4919838;29;20071;-74
2022/06/24 04:56:03;;;;;;;8.82;3.05;;;22.70;99.90;;;;;;4923319;29;20044;-74
2022/06/24 04:58:28;;;;;;;8.10;3.00;;;22.50;99.90;;;;;;4906446;29;20135;-74
2022/06/24 05:00:54;;;;;;;8.80;3.00;;;22.70;99.90;;;;;;4927232;29;20501;-74
2022/06/24 05:03:20;;;;;;;6.32;2.60;;;22.80;99.90;;;;;;4925742;29;20497;-74
2022/06/24 05:05:45;;;;;;;9.48;2.72;;;22.70;99.90;;;;;;4926100;29;20063;-74
2022/06/24 05:08:11;;;;;;;5.70;2.80;;;22.80;99.90;;;;;;4923352;29;20051;-73
2022/06/24 05:10:36;;;;;;;7.18;3.08;;;22.90;99.90;;;;;;4943518;28;20586;-74
2022/06/24 05:13:02;;;;;;;7.63;3.40;;;22.70;99.90;;;;;;4915417;29;20513;-74
2022/06/24 05:15:28;;;;;;;6.70;3.75;;;22.50;99.90;;;;;;4921489;29;20051;-74
2022/06/24 05:17:54;;;;;;;9.18;4.05;;;22.30;99.90;;;;;;4940372;29;20043;-73
2022/06/24 05:20:20;;;;;;;12.18;5.50;;;22.20;99.90;;;;;;4938256;28;20546;-74
2022/06/24 05:22:45;;;;;;;9.80;4.80;;;22.00;99.90;;;;;;4925165;29;20114;-74
2022/06/24 05:25:11;;;;;;;12.00;6.70;;;21.90;99.90;;;;;;4923711;29;20078;-74
2022/06/24 05:27:37;;;;;;;9.18;6.40;;;21.70;99.90;;;;;;4924878;29;20071;-74
2022/06/24 05:30:03;;;;;;;10.88;6.75;;;21.60;99.90;;;;;;4925942;29;20539;-74
2022/06/24 05:32:28;;;;;;;15.90;8.05;;;21.50;99.90;;;;;;4928400;28;20445;-74
2022/06/24 05:34:55;;;;;;;16.70;7.18;;;21.40;99.90;;;;;;4941810;29;20125;-74
2022/06/24 05:37:21;;;;;;;15.70;6.60;;;21.40;99.90;;;;;;4928078;28;20104;-74
2022/06/24 05:39:46;;;;;;;16.77;6.05;;;21.40;99.90;;;;;;4925199;29;20047;-73
2022/06/24 05:42:12;;;;;;;13.27;4.65;;;21.40;99.90;;;;;;4921153;29;20491;-73
2022/06/24 05:44:38;;;;;;;16.00;5.35;;;21.50;99.90;;;;;;4941250;29;20527;-73
2022/06/24 05:47:04;;;;;;;19.13;4.60;;;21.50;99.90;;;;;;4926593;29;20088;-73
2022/06/24 05:49:29;;;;;;;8.60;3.55;;;21.70;99.90;;;;;;4911514;29;20047;-73
2022/06/24 05:51:55;;;;;;;11.73;3.83;;;21.80;99.90;;;;;;4944749;28;20193;-73
2022/06/24 05:57:05;;;;;;;10.18;4.35;;;21.90;99.90;;;;;;4924349;29;20146;-73
2022/06/24 05:59:31;;;;;;;7.80;3.60;;;21.80;99.90;;;;;;4922640;29;20047;-74
2022/06/24 06:01:57;;;;;;;7.15;3.30;;;21.80;99.90;;;;;;4908438;28;20055;-74
2022/06/24 06:04:23;;;;;;;9.85;3.58;;;21.70;99.90;;;;;;4942196;29;20091;-73
2022/06/24 06:06:50;;;;;;;7.78;2.85;;;21.70;99.90;;;;;;4940777;29;20089;-73
2022/06/24 06:09:16;;;;;;;8.90;3.20;;;21.60;99.90;;;;;;4942420;28;20054;-73
2022/06/24 06:11:42;;;;;;;9.07;3.17;;;21.40;99.90;;;;;;4927195;29;20094;-73
2022/06/24 06:14:07;;;;;;;9.10;3.08;;;21.30;99.90;;;;;;4921102;29;20051;-74
2022/06/24 06:16:33;;;;;;;6.60;2.88;;;21.20;99.90;;;;;;4942671;28;20050;-73
2022/06/24 06:18:59;;;;;;;7.05;2.90;;;21.10;99.90;;;;;;4927083;29;20035;-73
2022/06/24 06:21:25;;;;;;;8.38;3.22;;;20.90;99.90;;;;;;4941587;28;20504;-74
2022/06/24 06:23:50;;;;;;;15.57;3.47;;;20.90;99.90;;;;;;4924890;29;20055;-76
2022/06/24 06:26:16;;;;;;;12.82;3.97;;;20.80;99.90;;;;;;4930865;28;20480;-77
2022/06/24 06:28:42;;;;;;;8.60;3.30;;;20.70;99.90;;;;;;4939866;29;20055;-79
2022/06/24 06:31:09;;;;;;;10.15;3.90;;;20.70;99.90;;;;;;4943076;29;20043;-79
2022/06/24 06:33:35;;;;;;;12.60;3.42;;;20.70;99.90;;;;;;4924335;29;20050;-79
2022/06/24 06:36:08;;;;;;;10.07;3.10;;;20.60;99.90;;;;;;4931487;29;20051;-79
2022/06/24 06:38:39;;;;;;;7.45;2.72;;;20.60;99.90;;;;;;4942555;28;20416;-79
2022/06/24 06:41:08;;;;;;;;;;;20.60;99.90;;;;;;4948005;29;20039;-79
2022/06/24 06:43:34;;;;;;;7.00;2.90;;;20.60;99.90;;;;;;4938826;29;20414;-78
2022/06/24 06:46:00;;;;;;;8.93;3.63;;;20.60;99.90;;;;;;4931191;28;20044;-78
2022/06/24 06:48:26;;;;;;;7.38;3.88;;;20.60;99.90;;;;;;4941721;29;20035;-78
2022/06/24 06:50:58;;;;;;;9.48;3.72;;;20.60;99.90;;;;;;4953855;29;20242;-78
2022/06/24 06:53:26;;;;;;;10.43;3.60;;;20.60;99.90;;;;;;4969267;29;20073;-78
2022/06/24 06:55:52;;;;;;;7.10;3.33;;;20.70;99.90;;;;;;4951454;28;20221;-77
2022/06/24 06:58:19;;;;;;;7.93;2.97;;;20.70;99.90;;;;;;4947065;29;20067;-78
2022/06/24 07:00:44;;;;;;;9.95;3.67;;;20.70;99.90;;;;;;4941477;28;20047;-78
2022/06/24 07:03:11;;;;;;;6.28;3.35;;;20.80;99.90;;;;;;4942621;29;20043;-79
2022/06/24 07:05:37;;;;;;;10.25;3.75;;;20.90;99.90;;;;;;4932594;29;20089;-78
2022/06/24 07:08:04;;;;;;;11.23;3.40;;;20.90;99.90;;;;;;4928070;29;21240;-78
2022/06/24 07:10:30;;;;;;;8.20;3.47;;;20.90;99.90;;;;;;4939116;28;20039;-78
2022/06/24 07:12:56;;;;;;;9.68;3.67;;;21.00;99.90;;;;;;4926889;29;20078;-78
2022/06/24 07:15:21;;;;;;;7.30;3.72;;;20.90;99.90;;;;;;4928120;29;20800;-78
2022/06/24 07:17:47;;;;;;;12.98;4.10;;;20.80;99.90;;;;;;4941442;29;20397;-78
2022/06/24 07:20:13;;;;;;;10.93;4.10;;;20.70;99.90;;;;;;4928505;29;20050;-77
2022/06/24 07:22:40;;;;;;;9.13;3.55;;;20.60;99.90;;;;;;4943506;29;20051;-77
2022/06/24 07:25:06;;;;;;;8.98;3.58;;;20.50;99.90;;;;;;4938340;29;20039;-75
2022/06/24 07:27:32;;;;;;;7.97;3.75;;;20.50;99.90;;;;;;4938513;28;20138;-75
2022/06/24 07:29:58;;;;;;;7.72;3.88;;;20.50;99.90;;;;;;4939413;28;20465;-75
2022/06/24 07:32:24;;;;;;;9.88;3.80;;;20.40;99.90;;;;;;4940791;29;20118;-75
2022/06/24 07:34:49;;;;;;;8.75;3.75;;;20.50;99.90;;;;;;4925894;29;20082;-75
2022/06/24 07:37:15;;;;;;;8.52;3.70;;;20.50;99.90;;;;;;4922240;29;20141;-75
2022/06/24 07:39:43;;;;;;;7.47;4.18;;;20.50;99.90;;;;;;4925522;29;20220;-75
2022/06/24 07:42:10;;;;;;;8.40;4.30;;;20.50;99.90;;;;;;4921812;29;20087;-74
2022/06/24 07:44:43;;;;;;;8.38;4.20;;;20.50;99.90;;;;;;4920429;29;20070;-75
2022/06/24 07:47:09;;;;;;;6.63;4.28;;;20.50;99.90;;;;;;4939917;28;20269;-75
2022/06/24 07:49:35;;;;;;;8.52;4.20;;;20.50;99.90;;;;;;4925257;29;20043;-75
2022/06/24 07:52:00;;;;;;;9.63;4.15;;;20.50;99.90;;;;;;4922033;29;20206;-75
2022/06/24 07:54:26;;;;;;;11.15;4.18;;;20.50;99.90;;;;;;4939927;28;20079;-75
2022/06/24 07:56:58;;;;;;;6.90;4.20;;;20.50;99.90;;;;;;4928338;29;20081;-75
2022/06/24 07:59:28;;;;;;;8.57;4.93;;;20.60;99.90;;;;;;4942594;28;20043;-75
2022/06/24 08:01:55;;;;;;;7.93;4.35;;;20.60;99.90;;;;;;4924922;29;20138;-74
2022/06/24 08:04:22;;;;;;;10.20;4.22;;;20.60;99.90;;;;;;4941589;28;20070;-75
2022/06/24 08:06:52;;;;;;;8.73;4.25;;;20.60;99.90;;;;;;4928460;29;20123;-75
2022/06/24 08:09:23;;;;;;;9.97;4.10;;;20.60;99.90;;;;;;4928850;29;20653;-75
2022/06/24 08:11:49;;;;;;;10.45;4.50;;;20.70;99.90;;;;;;4945860;28;20050;-75
2022/06/24 08:14:16;;;;;;;7.43;3.85;;;20.70;99.90;;;;;;4939765;28;20078;-74
2022/06/24 08:16:42;;;;;;;9.18;4.05;;;20.70;99.90;;;;;;4943405;28;20051;-74
2022/06/24 08:19:07;;;;;;;9.88;4.75;;;20.80;99.90;;;;;;4935650;29;20036;-74
2022/06/24 08:21:33;;;;;;;11.50;4.78;;;20.80;99.90;;;;;;4943647;28;20054;-74
2022/06/24 08:23:59;;;;;;;9.48;4.70;;;20.80;99.90;;;;;;4927257;29;20046;-74
2022/06/24 08:26:25;;;;;;;10.93;4.35;;;20.80;99.90;;;;;;4947431;28;20106;-74
2022/06/24 08:28:51;;;;;;;10.05;4.60;;;20.80;99.90;;;;;;4919706;29;20517;-75
2022/06/24 08:31:17;;;;;;;10.90;4.80;;;20.90;99.90;;;;;;4924796;29;20067;-75
2022/06/24 08:33:42;;;;;;;11.45;4.57;;;20.90;99.90;;;;;;4938457;28;20044;-74
2022/06/24 08:36:08;;;;;;;9.00;4.65;;;20.90;99.90;;;;;;4926250;29;20091;-74
2022/06/24 08:38:34;;;;;;;9.80;4.85;;;20.90;99.90;;;;;;4921963;29;20047;-75
2022/06/24 08:41:02;;;;;;;9.75;4.65;;;20.90;99.90;;;;;;4928458;29;20038;-74
2022/06/24 08:43:33;;;;;;;9.68;5.30;;;21.00;99.90;;;;;;4923967;29;20040;-74
2022/06/24 08:46:00;;;;;;;12.23;4.72;;;21.00;99.90;;;;;;4940983;28;20045;-74
2022/06/24 08:48:27;;;;;;;8.82;4.50;;;21.00;99.90;;;;;;4911105;29;20790;-74
2022/06/24 08:50:54;;;;;;;9.73;5.00;;;20.90;99.90;;;;;;4910944;29;20044;-74
2022/06/24 08:53:22;;;;;;;11.18;4.32;;;20.90;99.90;;;;;;4936709;28;20596;-74
2022/06/24 08:55:50;;;;;;;11.05;4.43;;;20.90;99.90;;;;;;4916776;29;20079;-73
2022/06/24 08:58:17;;;;;;;9.68;4.38;;;20.90;99.90;;;;;;4916954;29;20472;-74
2022/06/24 09:00:43;;;;;;;9.50;4.10;;;20.90;99.90;;;;;;4923460;29;20094;-74
2022/06/24 09:03:09;;;;;;;10.95;4.05;;;20.90;99.90;;;;;;4936404;28;20051;-75
2022/06/24 09:05:36;;;;;;;10.23;3.85;;;20.80;99.90;;;;;;4936131;29;20399;-75
2022/06/24 09:08:14;;;;;;;11.40;4.18;;;20.80;99.90;;;;;;4918988;29;20382;-74
2022/06/24 09:11:06;;;;;;;9.85;3.80;;;20.70;99.90;;;;;;4921315;29;20099;-74
2022/06/24 09:14:00;;;;;;;14.73;3.75;;;20.70;99.90;;;;;;4922265;29;20678;-74
2022/06/24 09:16:26;;;;;;;7.93;3.38;;;20.70;99.90;;;;;;4924161;29;20296;-75
2022/06/24 09:18:54;;;;;;;8.15;3.15;;;20.60;99.90;;;;;;4927628;29;20080;-75
2022/06/24 09:21:25;;;;;;;7.28;3.55;;;20.70;99.90;;;;;;4935968;28;20043;-74
2022/06/24 09:23:56;;;;;;;9.43;3.25;;;20.60;99.90;;;;;;4922953;29;20543;-74
2022/06/24 09:26:33;;;;;;;12.02;3.42;;;20.70;99.90;;;;;;4938481;29;20051;-74
2022/06/24 09:29:00;;;;;;;7.63;3.88;;;20.70;99.90;;;;;;4918063;29;20060;-74
2022/06/24 09:31:27;;;;;;;10.30;3.85;;;20.70;99.90;;;;;;4918987;29;21198;-74
2022/06/24 09:33:53;;;;;;;9.50;3.35;;;20.70;99.90;;;;;;4924326;29;20505;-74
2022/06/24 09:36:26;;;;;;;7.30;3.75;;;20.60;99.90;;;;;;4924215;29;20048;-73
2022/06/24 09:38:56;;;;;;;8.75;4.13;;;20.60;99.90;;;;;;4942549;28;20502;-74
2022/06/24 09:41:23;;;;;;;8.75;4.50;;;20.60;99.90;;;;;;4925771;29;20074;-74
2022/06/24 09:43:51;;;;;;;8.02;4.20;;;20.50;99.90;;;;;;4923651;29;20897;-74
2022/06/24 09:46:22;;;;;;;9.82;4.95;;;20.50;99.90;;;;;;4938837;28;20115;-73
2022/06/24 09:48:50;;;;;;;9.10;4.38;;;20.50;99.90;;;;;;4923126;29;20044;-74
2022/06/24 09:51:17;;;;;;;8.57;4.07;;;20.50;99.90;;;;;;4907724;29;20043;-74
2022/06/24 09:53:43;;;;;;;10.38;4.53;;;20.40;99.90;;;;;;4921430;29;20066;-73
2022/06/24 09:56:11;;;;;;;9.02;5.07;;;20.40;99.90;;;;;;4919678;29;20118;-74
2022/06/24 09:58:38;;;;;;;9.82;4.78;;;20.40;99.90;;;;;;4910138;29;20058;-73
2022/06/24 10:01:04;;;;;;;8.95;4.50;;;20.30;99.90;;;;;;4927924;29;20567;-74
2022/06/24 10:03:32;;;;;;;8.68;4.68;;;20.30;99.90;;;;;;4927176;29;20052;-74
2022/06/24 10:06:04;;;;;;;11.32;4.53;;;20.30;99.90;;;;;;4930505;29;20051;-75
2022/06/24 10:08:34;;;;;;;12.40;5.85;;;20.30;99.90;;;;;;4928186;29;20048;-75
2022/06/24 10:11:05;;;;;;;10.50;4.97;;;20.20;99.90;;;;;;4940784;28;20047;-75
2022/06/24 10:13:32;;;;;;;9.05;5.13;;;20.10;99.90;;;;;;4918476;29;20051;-76
2022/06/24 10:16:06;;;;;;;9.68;5.57;;;20.10;99.90;;;;;;4920884;29;20047;-78
2022/06/24 10:18:36;;;;;;;8.18;4.90;;;20.00;99.90;;;;;;4931069;29;20047;-77
2022/06/24 10:21:04;;;;;;;9.75;5.10;;;20.00;99.90;;;;;;4943408;29;20123;-75
2022/06/24 10:23:37;;;;;;;9.82;5.20;;;19.90;99.90;;;;;;4955277;29;20103;-76
2022/06/24 10:26:27;;;;;;;8.60;5.22;;;19.90;99.90;;;;;;4912327;29;20512;-76
2022/06/24 10:29:05;;;;;;;10.27;4.80;;;19.80;99.90;;;;;;4902130;29;20062;-76
2022/06/24 10:31:49;;;;;;;8.23;4.13;;;19.70;99.90;;;;;;4921272;29;20306;-74
2022/06/24 10:34:27;;;;;;;7.72;4.78;;;19.60;99.90;;;;;;4922469;29;20453;-75
2022/06/24 10:37:22;;;;;;;9.52;4.93;;;19.50;99.90;;;;;;4926740;29;20694;-75
2022/06/24 10:39:57;;;;;;;8.10;3.58;;;19.50;99.90;;;;;;4909922;29;21479;-79
2022/06/24 10:42:24;;;;;;;5.72;3.40;;;19.30;99.90;;;;;;4917932;29;20127;-80
2022/06/24 10:45:06;;;;;;;7.43;4.00;;;19.30;99.90;;;;;;4939566;28;20152;-82
2022/06/24 10:47:34;;;;;;;6.35;3.22;;;19.20;99.90;;;;;;4923417;29;20090;-81
2022/06/24 10:50:01;;;;;;;5.80;2.08;;;19.10;99.90;;;;;;4919103;29;20134;-81
2022/06/24 10:52:37;;;;;;;6.22;2.30;;;19.10;99.90;;;;;;4917191;29;20055;-78
2022/06/24 10:55:15;;;;;;;5.18;2.40;;;18.90;99.90;;;;;;4936195;28;20052;-80
2022/06/24 10:57:42;;;;;;;5.05;1.80;;;18.80;99.90;;;;;;4916651;29;20441;-80
2022/06/24 11:00:16;;;;;;;6.78;2.30;;;18.80;99.90;;;;;;4922932;29;20417;-80
2022/06/24 11:02:42;;;;;;;4.43;2.15;;;18.70;99.90;;;;;;4922697;29;20139;-78
2022/06/24 11:05:25;;;;;;;5.18;2.15;;;18.80;99.90;;;;;;4920797;29;20047;-79
2022/06/24 11:07:51;;;;;;;5.80;1.80;;;18.70;99.90;;;;;;4936032;28;20062;-77
2022/06/24 11:10:22;;;;;;;5.72;2.20;;;18.70;99.90;;;;;;4916739;29;20051;-77
2022/06/24 11:12:51;;;;;;;6.82;2.50;;;18.70;99.90;;;;;;4919327;29;20524;-77
2022/06/24 11:15:17;;;;;;;6.57;2.72;;;18.70;99.90;;;;;;4898517;29;20043;-77
2022/06/24 11:17:43;;;;;;;5.72;2.28;;;18.70;99.90;;;;;;4916707;29;20039;-77
2022/06/24 11:20:11;;;;;;;7.05;3.10;;;18.70;99.90;;;;;;4916453;29;20043;-78
2022/06/24 11:22:44;;;;;;;5.15;2.38;;;18.70;99.90;;;;;;4916010;29;20052;-78
2022/06/24 11:25:13;;;;;;;4.68;2.40;;;18.70;99.90;;;;;;4920512;29;20406;-77
2022/06/24 11:27:39;;;;;;;7.30;2.63;;;18.70;99.90;;;;;;4922638;29;20058;-76
2022/06/24 11:30:07;;;;;;;5.35;2.50;;;18.70;99.90;;;;;;4925561;29;20051;-76
2022/06/24 11:32:53;;;;;;;5.63;2.50;;;18.70;99.90;;;;;;4921378;29;20043;-76
2022/06/24 11:35:19;;;;;;;4.55;2.60;;;18.80;99.90;;;;;;4942074;28;20115;-76
2022/06/24 11:37:45;;;;;;;7.72;3.30;;;18.80;99.90;;;;;;4929318;28;20060;-75
2022/06/24 11:40:23;;;;;;;5.22;2.50;;;18.80;99.90;;;;;;4919687;29;20048;-77
2022/06/24 11:42:49;;;;;;;6.63;2.50;;;18.80;99.90;;;;;;4924738;29;20051;-76
2022/06/24 11:45:15;;;;;;;7.00;2.90;;;18.90;99.90;;;;;;4924219;29;20044;-76
2022/06/24 11:47:47;;;;;;;7.53;2.97;;;18.80;99.90;;;;;;4910022;29;20361;-76
2022/06/24 11:50:19;;;;;;;5.40;2.70;;;18.80;99.90;;;;;;4911910;29;20063;-76
2022/06/24 11:52:47;;;;;;;9.63;3.30;;;18.80;99.90;;;;;;4925117;29;20043;-76
2022/06/24 11:55:24;;;;;;;8.40;3.05;;;18.80;99.90;;;;;;4923226;29;20052;-75
2022/06/24 11:58:03;;;;;;;5.72;2.55;;;18.80;99.90;;;;;;4920106;29;20043;-74
2022/06/24 12:00:32;;;;;;;6.85;3.55;;;18.80;99.90;;;;;;4923089;29;20044;-75
2022/06/24 12:02:59;;;;;;;6.95;2.65;;;18.80;99.90;;;;;;4918955;29;20035;-75
2022/06/24 12:05:30;;;;;;;8.65;3.35;;;18.90;99.90;;;;;;4924686;29;20162;-75
2022/06/24 12:07:56;;;;;;;;;;;19.00;99.90;;;;;;4916026;29;20047;-74
2022/06/24 12:10:22;;;;;;;6.43;3.05;;;19.10;99.90;;;;;;4935438;28;19965;-75
2022/06/24 12:13:00;;;;;;;6.30;2.88;;;19.10;99.90;;;;;;4918150;29;20518;-74
2022/06/24 12:15:48;;;;;;;6.45;2.70;;;19.20;99.90;;;;;;4943204;28;20048;-74
2022/06/24 12:18:15;;;;;;;5.78;3.00;;;19.30;99.90;;;;;;4889509;29;20096;-74
2022/06/24 12:20:41;;;;;;;6.45;3.47;;;19.30;99.90;;;;;;4921125;29;20051;-74
2022/06/24 12:23:14;;;;;;;7.60;3.13;;;19.50;99.90;;;;;;4935416;28;20058;-74
2022/06/24 12:25:42;;;;;;;7.82;4.15;;;19.60;99.90;;;;;;4904674;29;20056;-75
2022/06/24 12:28:27;;;;;;;8.15;2.95;;;19.70;99.90;;;;;;4935935;28;20060;-74
2022/06/24 12:31:03;;;;;;;6.18;3.47;;;19.90;99.90;;;;;;4935101;28;20044;-74
2022/06/24 12:33:34;;;;;;;6.68;3.63;;;20.10;99.90;;;;;;4919359;29;20054;-75
2022/06/24 12:36:14;;;;;;;5.78;3.60;;;20.30;99.90;;;;;;4922466;29;20043;-74
2022/06/24 12:38:57;;;;;;;8.20;4.45;;;20.40;99.90;;;;;;4922188;29;20489;-74
2022/06/24 12:41:24;;;;;;;7.28;4.05;;;20.50;99.90;;;;;;4919618;29;20059;-73
2022/06/24 12:43:57;;;;;;;6.93;4.45;;;20.60;99.90;;;;;;4934430;28;20040;-73
2022/06/24 12:46:25;;;;;;;9.30;5.07;;;20.70;99.90;;;;;;4934186;28;20040;-74
2022/06/24 12:51:44;;;;;;;6.85;4.80;;;20.90;99.90;;;;;;4920141;29;20058;-73
2022/06/24 12:54:12;;;;;;;9.02;4.95;;;21.20;99.90;;;;;;4937687;29;20047;-74
2022/06/24 12:56:38;;;;;;;7.75;4.95;;;21.50;99.90;;;;;;4919687;29;20051;-73
2022/06/24 12:59:04;;;;;;;9.35;6.20;;;21.80;99.90;;;;;;4934699;29;20192;-74